Airfield :







YOU CAN JOIN US ON...

 
LOGIN :

Register | Disclaimer

   EN    FR    IT 

 









Legend :    VFR   Marginal VFR   IFR   Intensive IFR   Very Intensive IFR
Visi :
Ceiling :
>= 8 km
>= 3000ft
5 to 8 km
1000 to 3000 ft
1500m to 5 km
500 to 1000 ft
800 to 1500m
200 to 500 ft
< 800m
< 200 ft
Symbols :   Thunderstorms  Fog  Heavy snow  Heavy precipitations  Wind > 20 kt






- Airport Elevation : 199 ft
- IATA code : YRQ


CYRQ - Trois-Rivières

CURRENT METAR :
  • 072000Z AUTO 19011KT 170V240 9SM CLR 26/14 A3013 RMK SLP205 DENSITY ALT 1200FT

EXPIRED METARs :
  • 071900Z AUTO 23008KT 170V250 9SM CLR 26/15 A3014 RMK SLP208 DENSITY ALT 1200FT
  • 071800Z AUTO 20007KT 9SM CLR 26/13 A3015 RMK SLP212 DENSITY ALT 1200FT

TAF TAF CYRQ
Valid from the 07 at 20:00 until the 08 at 08:00 UTC


071938Z 0720/0808 22007KT P6SM SKC
FM080000 19005KT P6SM FEW060
PROB30 0805/0808 1SM BR RMK FCST BASED ON AUTO OBS. NXT FCST BY 080200Z
CZUL FIR / North America



MET'MAP, your aeronautical weather chart ! - Copyright ORBIFLY December 2007 - Disclaimer

ORBIFLY MET'MAP TEAM :

Programming & Development : Alexandra Zaïnal
Concept & original design : Baudouin d'Aumeries
Assistance for programming : Marc-Olivier Méhu
Technical & hardware support : Manuel Goepfert

Contact : metmap@orbifly.com




SOURCES & CREDITS :

   NOAA